sensor_id;sensor_type;location;lat;lon;timestamp;pressure;altitude;pressure_sealevel;temperature;humidity
55418;BME280;41287;47.554;7.844;2022-07-19T00:00:37;98310.25;;;23.96;54.32
55418;BME280;41287;47.554;7.844;2022-07-19T00:03:03;98309.13;;;23.97;54.04
55418;BME280;41287;47.554;7.844;2022-07-19T00:05:31;98301.69;;;23.98;54.36
55418;BME280;41287;47.554;7.844;2022-07-19T00:07:58;98303.66;;;23.97;54.45
55418;BME280;41287;47.554;7.844;2022-07-19T00:10:23;98301.25;;;23.96;54.30
55418;BME280;41287;47.554;7.844;2022-07-19T00:12:49;98294.63;;;23.97;54.24
55418;BME280;41287;47.554;7.844;2022-07-19T00:15:15;98295.44;;;23.97;54.44
55418;BME280;41287;47.554;7.844;2022-07-19T00:17:43;98284.47;;;23.97;54.10
55418;BME280;41287;47.554;7.844;2022-07-19T00:20:11;98289.16;;;23.97;54.24
55418;BME280;41287;47.554;7.844;2022-07-19T00:22:39;98280.16;;;23.96;54.23
55418;BME280;41287;47.554;7.844;2022-07-19T00:25:07;98281.75;;;23.97;54.27
55418;BME280;41287;47.554;7.844;2022-07-19T00:27:33;98282.53;;;23.98;54.22
55418;BME280;41287;47.554;7.844;2022-07-19T00:30:00;98281.75;;;23.97;54.17
55418;BME280;41287;47.554;7.844;2022-07-19T00:32:29;98275.47;;;23.97;54.10
55418;BME280;41287;47.554;7.844;2022-07-19T00:34:54;98279.38;;;23.96;54.10
55418;BME280;41287;47.554;7.844;2022-07-19T00:37:20;98289.16;;;23.97;54.24
55418;BME280;41287;47.554;7.844;2022-07-19T00:39:45;98285.28;;;23.98;54.04
55418;BME280;41287;47.554;7.844;2022-07-19T00:42:11;98284.47;;;23.97;54.32
55418;BME280;41287;47.554;7.844;2022-07-19T00:44:36;98270.00;;;23.97;54.21
55418;BME280;41287;47.554;7.844;2022-07-19T00:47:04;98272.75;;;23.97;54.30
55418;BME280;41287;47.554;7.844;2022-07-19T00:49:30;98272.38;;;23.98;54.12
55418;BME280;41287;47.554;7.844;2022-07-19T00:51:56;98270.00;;;23.97;54.19
55418;BME280;41287;47.554;7.844;2022-07-19T00:54:23;98271.59;;;23.98;54.16
55418;BME280;41287;47.554;7.844;2022-07-19T00:56:49;98270.78;;;23.97;54.30
55418;BME280;41287;47.554;7.844;2022-07-19T00:59:16;98263.72;;;23.96;54.30
55418;BME280;41287;47.554;7.844;2022-07-19T01:01:43;98270.78;;;23.97;54.15
55418;BME280;41287;47.554;7.844;2022-07-19T01:04:11;98264.53;;;23.97;54.38
55418;BME280;41287;47.554;7.844;2022-07-19T01:06:37;98262.59;;;23.97;54.33
55418;BME280;41287;47.554;7.844;2022-07-19T01:09:04;98263.38;;;23.98;53.91
55418;BME280;41287;47.554;7.844;2022-07-19T01:11:29;98257.91;;;23.98;54.20
55418;BME280;41287;47.554;7.844;2022-07-19T01:13:55;98259.06;;;23.97;54.30
55418;BME280;41287;47.554;7.844;2022-07-19T01:16:20;98261.78;;;23.97;54.34
55418;BME280;41287;47.554;7.844;2022-07-19T01:18:46;98270.00;;;23.97;54.31
55418;BME280;41287;47.554;7.844;2022-07-19T01:21:22;98271.94;;;23.96;54.30
55418;BME280;41287;47.554;7.844;2022-07-19T01:23:48;98270.00;;;23.97;54.17
55418;BME280;41287;47.554;7.844;2022-07-19T01:26:14;98274.31;;;23.98;54.26
55418;BME280;41287;47.554;7.844;2022-07-19T01:28:40;98272.75;;;23.97;54.19
55418;BME280;41287;47.554;7.844;2022-07-19T01:31:07;98266.13;;;23.98;54.30
55418;BME280;41287;47.554;7.844;2022-07-19T01:33:38;98268.06;;;23.97;54.46
55418;BME280;41287;47.554;7.844;2022-07-19T01:36:04;98267.25;;;23.97;54.20
55418;BME280;41287;47.554;7.844;2022-07-19T01:38:32;98266.13;;;23.98;54.32
55418;BME280;41287;47.554;7.844;2022-07-19T01:40:59;98259.50;;;23.99;54.41
55418;BME280;41287;47.554;7.844;2022-07-19T01:43:25;98263.38;;;23.98;54.37
55418;BME280;41287;47.554;7.844;2022-07-19T01:45:50;98263.38;;;23.98;54.13
55418;BME280;41287;47.554;7.844;2022-07-19T01:48:19;98263.38;;;23.98;54.11
55418;BME280;41287;47.554;7.844;2022-07-19T01:50:44;98251.63;;;23.97;54.06
55418;BME280;41287;47.554;7.844;2022-07-19T01:53:10;98268.84;;;23.98;54.25
55418;BME280;41287;47.554;7.844;2022-07-19T01:55:37;98260.63;;;23.98;54.31
55418;BME280;41287;47.554;7.844;2022-07-19T01:58:05;98250.47;;;23.98;54.18
55418;BME280;41287;47.554;7.844;2022-07-19T02:00:31;98260.63;;;23.98;54.43
55418;BME280;41287;47.554;7.844;2022-07-19T02:02:56;98257.91;;;23.98;54.26
55418;BME280;41287;47.554;7.844;2022-07-19T02:05:24;98256.31;;;23.97;54.06
55418;BME280;41287;47.554;7.844;2022-07-19T02:07:52;98259.06;;;23.97;54.40
55418;BME280;41287;47.554;7.844;2022-07-19T02:10:17;98263.38;;;23.98;54.17
55418;BME280;41287;47.554;7.844;2022-07-19T02:12:43;98266.13;;;23.98;54.05
55418;BME280;41287;47.554;7.844;2022-07-19T02:15:09;98251.63;;;23.97;54.39
55418;BME280;41287;47.554;7.844;2022-07-19T02:17:34;98248.91;;;23.97;54.26
55418;BME280;41287;47.554;7.844;2022-07-19T02:20:00;98248.91;;;23.97;54.49
55418;BME280;41287;47.554;7.844;2022-07-19T02:22:27;98250.84;;;23.97;53.89
55418;BME280;41287;47.554;7.844;2022-07-19T02:24:55;98246.16;;;23.97;54.11
55418;BME280;41287;47.554;7.844;2022-07-19T02:27:20;98252.44;;;23.98;54.36
55418;BME280;41287;47.554;7.844;2022-07-19T02:29:46;98253.22;;;23.98;54.24
55418;BME280;41287;47.554;7.844;2022-07-19T02:32:12;98248.09;;;23.97;54.12
55418;BME280;41287;47.554;7.844;2022-07-19T02:34:38;98249.69;;;23.98;54.43
55418;BME280;41287;47.554;7.844;2022-07-19T02:37:03;98249.69;;;23.98;54.56
55418;BME280;41287;47.554;7.844;2022-07-19T02:39:30;98247.75;;;23.98;54.28
55418;BME280;41287;47.554;7.844;2022-07-19T02:41:57;98246.97;;;23.98;54.11
55418;BME280;41287;47.554;7.844;2022-07-19T02:44:23;98249.69;;;23.98;54.10
55418;BME280;41287;47.554;7.844;2022-07-19T02:46:48;98248.53;;;23.99;54.31
55418;BME280;41287;47.554;7.844;2022-07-19T02:49:16;98243.41;;;23.97;54.36
55418;BME280;41287;47.554;7.844;2022-07-19T02:51:41;98246.97;;;23.98;54.13
55418;BME280;41287;47.554;7.844;2022-07-19T02:54:07;98240.69;;;23.97;54.36
55418;BME280;41287;47.554;7.844;2022-07-19T02:56:34;98247.75;;;23.98;54.22
55418;BME280;41287;47.554;7.844;2022-07-19T02:59:03;98248.91;;;23.97;54.13
55418;BME280;41287;47.554;7.844;2022-07-19T03:01:29;98245.00;;;23.98;54.23
55418;BME280;41287;47.554;7.844;2022-07-19T03:03:56;98245.38;;;23.97;54.05
55418;BME280;41287;47.554;7.844;2022-07-19T03:06:23;98248.91;;;23.97;54.16
55418;BME280;41287;47.554;7.844;2022-07-19T03:08:48;98249.69;;;23.98;54.24
55418;BME280;41287;47.554;7.844;2022-07-19T03:11:14;98251.28;;;23.99;54.38
55418;BME280;41287;47.554;7.844;2022-07-19T03:13:41;98246.97;;;23.98;54.19
55418;BME280;41287;47.554;7.844;2022-07-19T03:16:08;98248.53;;;23.99;54.41
55418;BME280;41287;47.554;7.844;2022-07-19T03:18:34;98249.69;;;23.98;54.10
55418;BME280;41287;47.554;7.844;2022-07-19T03:21:00;98248.53;;;23.99;54.38
55418;BME280;41287;47.554;7.844;2022-07-19T03:23:30;98244.22;;;23.98;54.34
55418;BME280;41287;47.554;7.844;2022-07-19T03:25:56;98244.22;;;23.98;54.34
55418;BME280;41287;47.554;7.844;2022-07-19T03:28:21;98246.97;;;23.98;54.22
55418;BME280;41287;47.554;7.844;2022-07-19T03:30:47;98244.22;;;23.98;54.31
55418;BME280;41287;47.554;7.844;2022-07-19T03:33:12;98240.69;;;23.97;54.54
55418;BME280;41287;47.554;7.844;2022-07-19T03:35:42;98236.00;;;23.98;54.42
55418;BME280;41287;47.554;7.844;2022-07-19T03:38:08;98230.53;;;23.98;54.11
55418;BME280;41287;47.554;7.844;2022-07-19T03:40:36;98234.84;;;23.99;54.36
55418;BME280;41287;47.554;7.844;2022-07-19T03:43:01;98233.28;;;23.98;54.22
55418;BME280;41287;47.554;7.844;2022-07-19T03:45:27;98236.00;;;23.98;54.36
55418;BME280;41287;47.554;7.844;2022-07-19T03:47:52;98243.06;;;23.99;54.43
55418;BME280;41287;47.554;7.844;2022-07-19T03:50:18;98241.47;;;23.98;54.11
55418;BME280;41287;47.554;7.844;2022-07-19T03:52:43;98243.41;;;23.97;54.16
55418;BME280;41287;47.554;7.844;2022-07-19T03:55:09;98247.75;;;23.98;54.15
55418;BME280;41287;47.554;7.844;2022-07-19T03:57:34;98241.47;;;23.98;54.36
55418;BME280;41287;47.554;7.844;2022-07-19T04:00:00;98242.28;;;23.98;54.15
55418;BME280;41287;47.554;7.844;2022-07-19T04:02:25;98238.75;;;23.98;54.11
55418;BME280;41287;47.554;7.844;2022-07-19T04:04:51;98241.47;;;23.98;54.46
55418;BME280;41287;47.554;7.844;2022-07-19T04:07:16;98237.94;;;23.97;54.34
55418;BME280;41287;47.554;7.844;2022-07-19T04:09:42;98243.06;;;23.99;54.24
55418;BME280;41287;47.554;7.844;2022-07-19T04:12:09;98246.97;;;23.98;54.22
55418;BME280;41287;47.554;7.844;2022-07-19T04:14:36;98243.41;;;23.97;54.47
55418;BME280;41287;47.554;7.844;2022-07-19T04:17:02;98246.97;;;23.98;54.31
55418;BME280;41287;47.554;7.844;2022-07-19T04:19:29;98255.16;;;23.98;54.10
55418;BME280;41287;47.554;7.844;2022-07-19T04:21:57;98258.69;;;23.98;54.26
55418;BME280;41287;47.554;7.844;2022-07-19T04:24:22;98260.63;;;23.98;54.24
55418;BME280;41287;47.554;7.844;2022-07-19T04:26:48;98263.38;;;23.98;54.27
55418;BME280;41287;47.554;7.844;2022-07-19T04:29:15;98266.91;;;23.98;54.33
55418;BME280;41287;47.554;7.844;2022-07-19T04:31:42;98264.16;;;23.98;54.25
55418;BME280;41287;47.554;7.844;2022-07-19T04:34:08;98264.16;;;23.98;54.25
55418;BME280;41287;47.554;7.844;2022-07-19T04:36:33;98268.84;;;23.98;54.43
55418;BME280;41287;47.554;7.844;2022-07-19T04:38:59;98268.84;;;23.98;54.18
55418;BME280;41287;47.554;7.844;2022-07-19T04:41:24;98273.97;;;23.99;54.48
55418;BME280;41287;47.554;7.844;2022-07-19T04:43:49;98275.91;;;23.99;54.41
55418;BME280;41287;47.554;7.844;2022-07-19T04:46:17;98269.66;;;23.98;54.44
55418;BME280;41287;47.554;7.844;2022-07-19T04:48:44;98269.66;;;23.98;54.04
55418;BME280;41287;47.554;7.844;2022-07-19T04:51:09;98268.84;;;23.98;54.31
55418;BME280;41287;47.554;7.844;2022-07-19T04:53:35;98267.25;;;23.97;54.32
55418;BME280;41287;47.554;7.844;2022-07-19T04:56:03;98271.59;;;23.98;54.34
55418;BME280;41287;47.554;7.844;2022-07-19T04:58:28;98271.59;;;23.98;54.36
55418;BME280;41287;47.554;7.844;2022-07-19T05:00:53;98275.13;;;23.98;54.40
55418;BME280;41287;47.554;7.844;2022-07-19T05:03:19;98279.81;;;23.98;54.23
55418;BME280;41287;47.554;7.844;2022-07-19T05:05:45;98281.38;;;23.99;54.15
55418;BME280;41287;47.554;7.844;2022-07-19T05:08:10;98277.84;;;23.98;54.06
55418;BME280;41287;47.554;7.844;2022-07-19T05:10:35;98268.84;;;23.98;54.19
55418;BME280;41287;47.554;7.844;2022-07-19T05:13:03;98268.84;;;23.98;54.37
55418;BME280;41287;47.554;7.844;2022-07-19T05:15:29;98266.13;;;23.98;54.30
55418;BME280;41287;47.554;7.844;2022-07-19T05:17:54;98251.63;;;23.97;54.39
55418;BME280;41287;47.554;7.844;2022-07-19T05:20:21;98260.63;;;23.98;54.29
55418;BME280;41287;47.554;7.844;2022-07-19T05:22:49;98266.91;;;23.98;54.24
55418;BME280;41287;47.554;7.844;2022-07-19T05:25:15;98259.84;;;23.97;54.18
55418;BME280;41287;47.554;7.844;2022-07-19T05:27:41;98259.84;;;23.97;54.36
55418;BME280;41287;47.554;7.844;2022-07-19T05:30:10;98264.16;;;23.98;54.46
55418;BME280;41287;47.554;7.844;2022-07-19T05:32:37;98254.38;;;23.97;54.37
55418;BME280;41287;47.554;7.844;2022-07-19T05:35:03;98257.91;;;23.98;54.26
55418;BME280;41287;47.554;7.844;2022-07-19T05:37:28;98261.44;;;23.98;54.52
55418;BME280;41287;47.554;7.844;2022-07-19T05:39:56;98257.91;;;23.98;54.33
55418;BME280;41287;47.554;7.844;2022-07-19T05:42:21;98255.16;;;23.98;54.31
55418;BME280;41287;47.554;7.844;2022-07-19T05:44:46;98255.97;;;23.98;54.15
55418;BME280;41287;47.554;7.844;2022-07-19T05:47:12;98245.00;;;23.98;54.31
55418;BME280;41287;47.554;7.844;2022-07-19T05:49:37;98251.63;;;23.97;54.29
55418;BME280;41287;47.554;7.844;2022-07-19T05:52:03;98239.53;;;23.98;54.40
55418;BME280;41287;47.554;7.844;2022-07-19T05:54:28;98246.97;;;23.98;54.19
55418;BME280;41287;47.554;7.844;2022-07-19T05:56:56;98245.38;;;23.97;54.14
55418;BME280;41287;47.554;7.844;2022-07-19T05:59:21;98249.69;;;23.98;54.45
55418;BME280;41287;47.554;7.844;2022-07-19T06:01:50;98245.38;;;23.97;54.41
55418;BME280;41287;47.554;7.844;2022-07-19T06:04:16;98246.97;;;23.98;54.22
55418;BME280;41287;47.554;7.844;2022-07-19T06:06:41;98244.22;;;23.98;54.24
55418;BME280;41287;47.554;7.844;2022-07-19T06:09:07;98252.44;;;23.98;54.20
55418;BME280;41287;47.554;7.844;2022-07-19T06:11:33;98250.47;;;23.98;54.13
55418;BME280;41287;47.554;7.844;2022-07-19T06:14:01;98249.69;;;23.98;54.18
55418;BME280;41287;47.554;7.844;2022-07-19T06:16:26;98254.38;;;23.97;54.17
55418;BME280;41287;47.554;7.844;2022-07-19T06:18:52;98252.44;;;23.98;54.50
55418;BME280;41287;47.554;7.844;2022-07-19T06:21:20;98248.91;;;23.97;54.44
55418;BME280;41287;47.554;7.844;2022-07-19T06:23:46;98254.38;;;23.97;54.42
55418;BME280;41287;47.554;7.844;2022-07-19T06:26:12;98248.09;;;23.97;54.20
55418;BME280;41287;47.554;7.844;2022-07-19T06:28:40;98257.91;;;23.98;54.12
55418;BME280;41287;47.554;7.844;2022-07-19T06:31:13;98253.56;;;23.97;54.10
55418;BME280;41287;47.554;7.844;2022-07-19T06:33:40;98257.91;;;23.98;54.49
55418;BME280;41287;47.554;7.844;2022-07-19T06:36:07;98259.84;;;23.97;54.20
55418;BME280;41287;47.554;7.844;2022-07-19T06:38:33;98259.84;;;23.97;54.26
55418;BME280;41287;47.554;7.844;2022-07-19T06:40:58;98258.69;;;23.98;54.30
55418;BME280;41287;47.554;7.844;2022-07-19T06:43:23;98253.22;;;23.98;54.36
55418;BME280;41287;47.554;7.844;2022-07-19T06:45:49;98246.97;;;23.98;54.38
55418;BME280;41287;47.554;7.844;2022-07-19T06:48:15;98246.16;;;23.97;54.42
55418;BME280;41287;47.554;7.844;2022-07-19T06:50:40;98248.91;;;23.97;54.26
55418;BME280;41287;47.554;7.844;2022-07-19T06:53:06;98243.41;;;23.97;54.39
55418;BME280;41287;47.554;7.844;2022-07-19T06:55:33;98242.63;;;23.97;54.17
55418;BME280;41287;47.554;7.844;2022-07-19T06:58:00;98237.16;;;23.97;54.38
55418;BME280;41287;47.554;7.844;2022-07-19T07:00:26;98245.38;;;23.97;54.26
55418;BME280;41287;47.554;7.844;2022-07-19T07:02:51;98240.69;;;23.97;54.38
55418;BME280;41287;47.554;7.844;2022-07-19T07:05:18;98238.75;;;23.98;54.26
55418;BME280;41287;47.554;7.844;2022-07-19T07:07:44;98237.16;;;23.97;54.20
55418;BME280;41287;47.554;7.844;2022-07-19T07:10:09;98242.28;;;23.98;54.22
55418;BME280;41287;47.554;7.844;2022-07-19T07:12:37;98248.09;;;23.97;54.18
55418;BME280;41287;47.554;7.844;2022-07-19T07:15:04;98238.75;;;23.98;54.58
55418;BME280;41287;47.554;7.844;2022-07-19T07:17:30;98243.41;;;23.97;54.60
55418;BME280;41287;47.554;7.844;2022-07-19T07:19:56;98239.91;;;23.97;54.07
55418;BME280;41287;47.554;7.844;2022-07-19T07:22:24;98243.41;;;23.97;54.63
55418;BME280;41287;47.554;7.844;2022-07-19T07:24:50;98242.63;;;23.97;54.41
55418;BME280;41287;47.554;7.844;2022-07-19T07:27:15;98239.91;;;23.97;54.51
55418;BME280;41287;47.554;7.844;2022-07-19T07:29:42;98233.28;;;23.98;54.37
55418;BME280;41287;47.554;7.844;2022-07-19T07:32:09;98241.84;;;23.96;54.38
55418;BME280;41287;47.554;7.844;2022-07-19T07:34:34;98240.69;;;23.97;54.36
55418;BME280;41287;47.554;7.844;2022-07-19T07:37:02;98237.16;;;23.97;54.60
55418;BME280;41287;47.554;7.844;2022-07-19T07:39:27;98234.41;;;23.97;54.04
55418;BME280;41287;47.554;7.844;2022-07-19T07:41:53;98226.22;;;23.97;54.31
55418;BME280;41287;47.554;7.844;2022-07-19T07:44:18;98227.00;;;23.97;54.13
55418;BME280;41287;47.554;7.844;2022-07-19T07:46:44;98226.22;;;23.97;54.45
55418;BME280;41287;47.554;7.844;2022-07-19T07:49:09;98224.25;;;23.97;54.06
55418;BME280;41287;47.554;7.844;2022-07-19T07:51:34;98225.06;;;23.98;54.13
55418;BME280;41287;47.554;7.844;2022-07-19T07:54:00;98226.22;;;23.97;54.60
55418;BME280;41287;47.554;7.844;2022-07-19T07:56:26;98226.22;;;23.97;54.33
55418;BME280;41287;47.554;7.844;2022-07-19T07:58:52;98220.72;;;23.97;54.44
55418;BME280;41287;47.554;7.844;2022-07-19T08:01:18;98226.22;;;23.97;54.29
55418;BME280;41287;47.554;7.844;2022-07-19T08:03:45;98215.25;;;23.97;54.36
55418;BME280;41287;47.554;7.844;2022-07-19T08:06:12;98218.00;;;23.97;54.45
55418;BME280;41287;47.554;7.844;2022-07-19T08:08:38;98215.25;;;23.97;54.59
55418;BME280;41287;47.554;7.844;2022-07-19T08:11:05;98218.00;;;23.97;54.40
55418;BME280;41287;47.554;7.844;2022-07-19T08:13:33;98210.56;;;23.97;54.19
55418;BME280;41287;47.554;7.844;2022-07-19T08:15:58;98210.56;;;23.97;54.15
55418;BME280;41287;47.554;7.844;2022-07-19T08:18:23;98215.25;;;23.97;54.25
55418;BME280;41287;47.554;7.844;2022-07-19T08:20:49;98210.56;;;23.97;54.58
55418;BME280;41287;47.554;7.844;2022-07-19T08:23:14;98207.84;;;23.97;54.32
55418;BME280;41287;47.554;7.844;2022-07-19T08:25:40;98209.78;;;23.97;54.39
55418;BME280;41287;47.554;7.844;2022-07-19T08:28:07;98211.38;;;23.98;54.43
55418;BME280;41287;47.554;7.844;2022-07-19T08:30:33;98204.31;;;23.97;54.26
55418;BME280;41287;47.554;7.844;2022-07-19T08:32:58;98202.38;;;23.97;54.30
55418;BME280;41287;47.554;7.844;2022-07-19T08:35:26;98205.91;;;23.98;54.56
55418;BME280;41287;47.554;7.844;2022-07-19T08:37:53;98200.78;;;23.96;54.26
55418;BME280;41287;47.554;7.844;2022-07-19T08:40:19;98212.53;;;23.97;54.53
55418;BME280;41287;47.554;7.844;2022-07-19T08:42:45;98205.91;;;23.98;54.30
55418;BME280;41287;47.554;7.844;2022-07-19T08:45:13;98201.56;;;23.97;54.23
55418;BME280;41287;47.554;7.844;2022-07-19T08:47:43;98205.09;;;23.97;54.34
55418;BME280;41287;47.554;7.844;2022-07-19T08:50:09;98198.03;;;23.96;54.51
55418;BME280;41287;47.554;7.844;2022-07-19T08:52:37;98203.53;;;23.96;54.34
55418;BME280;41287;47.554;7.844;2022-07-19T08:55:04;98198.03;;;23.96;54.31
55418;BME280;41287;47.554;7.844;2022-07-19T08:57:30;98192.56;;;23.96;54.48
55418;BME280;41287;47.554;7.844;2022-07-19T09:00:14;98195.31;;;23.96;54.46
55418;BME280;41287;47.554;7.844;2022-07-19T09:02:39;98196.91;;;23.97;54.24
55418;BME280;41287;47.554;7.844;2022-07-19T09:05:09;98191.78;;;23.96;54.35
55418;BME280;41287;47.554;7.844;2022-07-19T09:07:37;98189.84;;;23.96;54.16
55418;BME280;41287;47.554;7.844;2022-07-19T09:10:18;98190.22;;;23.95;54.44
55418;BME280;41287;47.554;7.844;2022-07-19T09:13:12;98190.22;;;23.95;54.17
55418;BME280;41287;47.554;7.844;2022-07-19T09:15:52;98185.50;;;23.95;54.47
55418;BME280;41287;47.554;7.844;2022-07-19T09:18:28;98187.09;;;23.96;54.44
55418;BME280;41287;47.554;7.844;2022-07-19T09:21:04;98184.34;;;23.96;54.09
55418;BME280;41287;47.554;7.844;2022-07-19T09:23:31;98182.41;;;23.97;54.50
55418;BME280;41287;47.554;7.844;2022-07-19T09:25:59;98176.16;;;23.96;54.44
55418;BME280;41287;47.554;7.844;2022-07-19T09:28:27;98184.34;;;23.96;54.51
55418;BME280;41287;47.554;7.844;2022-07-19T09:30:55;98189.84;;;23.96;54.54
55418;BME280;41287;47.554;7.844;2022-07-19T09:33:31;98184.75;;;23.95;54.13
55418;BME280;41287;47.554;7.844;2022-07-19T09:38:28;98176.94;;;23.97;54.46
55418;BME280;41287;47.554;7.844;2022-07-19T09:43:53;98168.31;;;23.95;54.38
55418;BME280;41287;47.554;7.844;2022-07-19T09:49:13;98168.31;;;23.95;54.31
55418;BME280;41287;47.554;7.844;2022-07-19T09:51:43;98173.41;;;23.96;54.14
55418;BME280;41287;47.554;7.844;2022-07-19T09:54:11;98169.09;;;23.95;54.24
55418;BME280;41287;47.554;7.844;2022-07-19T09:56:42;98153.47;;;23.96;54.07
55418;BME280;41287;47.554;7.844;2022-07-19T09:59:08;98158.94;;;23.96;54.54
55418;BME280;41287;47.554;7.844;2022-07-19T10:01:34;98160.50;;;23.97;54.39
55418;BME280;41287;47.554;7.844;2022-07-19T10:04:26;98164.41;;;23.96;54.20
55418;BME280;41287;47.554;7.844;2022-07-19T10:06:54;98151.50;;;23.96;54.38
55418;BME280;41287;47.554;7.844;2022-07-19T10:09:21;98149.56;;;23.97;54.16
55418;BME280;41287;47.554;7.844;2022-07-19T10:11:48;98146.03;;;23.96;54.43
55418;BME280;41287;47.554;7.844;2022-07-19T10:14:13;98148.00;;;23.96;54.38
55418;BME280;41287;47.554;7.844;2022-07-19T10:22:26;98121.00;;;23.94;54.31
55418;BME280;41287;47.554;7.844;2022-07-19T10:24:59;98131.56;;;23.96;54.27
55418;BME280;41287;47.554;7.844;2022-07-19T10:32:28;98126.88;;;23.96;54.41
55418;BME280;41287;47.554;7.844;2022-07-19T10:35:18;98125.28;;;23.95;54.38
55418;BME280;41287;47.554;7.844;2022-07-19T10:37:46;98122.19;;;23.97;54.13
55418;BME280;41287;47.554;7.844;2022-07-19T10:40:12;98117.88;;;23.96;54.51
55418;BME280;41287;47.554;7.844;2022-07-19T10:45:31;98116.72;;;23.97;54.30
55418;BME280;41287;47.554;7.844;2022-07-19T10:47:58;98115.94;;;23.96;54.40
55418;BME280;41287;47.554;7.844;2022-07-19T10:50:42;98110.06;;;23.94;54.39
55418;BME280;41287;47.554;7.844;2022-07-19T10:53:07;98118.66;;;23.96;54.18
55418;BME280;41287;47.554;7.844;2022-07-19T10:55:35;98115.13;;;23.96;54.33
55418;BME280;41287;47.554;7.844;2022-07-19T10:58:10;98110.84;;;23.95;54.24
55418;BME280;41287;47.554;7.844;2022-07-19T11:00:45;98105.38;;;23.95;54.13
55418;BME280;41287;47.554;7.844;2022-07-19T11:05:52;98109.66;;;23.96;54.24
55418;BME280;41287;47.554;7.844;2022-07-19T11:11:21;98090.91;;;23.94;54.31
55418;BME280;41287;47.554;7.844;2022-07-19T11:13:50;98092.09;;;23.97;54.11
55418;BME280;41287;47.554;7.844;2022-07-19T11:16:18;98084.25;;;23.95;54.27
55418;BME280;41287;47.554;7.844;2022-07-19T11:18:46;98085.03;;;23.96;54.34
55418;BME280;41287;47.554;7.844;2022-07-19T11:21:14;98079.56;;;23.96;54.48
55418;BME280;41287;47.554;7.844;2022-07-19T11:23:40;98073.28;;;23.95;53.97
55418;BME280;41287;47.554;7.844;2022-07-19T11:26:08;98080.34;;;23.96;54.37
55418;BME280;41287;47.554;7.844;2022-07-19T11:28:34;98081.16;;;23.97;54.23
55418;BME280;41287;47.554;7.844;2022-07-19T11:31:00;98076.81;;;23.96;54.27
55418;BME280;41287;47.554;7.844;2022-07-19T11:33:27;98060.41;;;23.96;54.00
55418;BME280;41287;47.554;7.844;2022-07-19T11:35:59;98061.19;;;23.96;54.02
55418;BME280;41287;47.554;7.844;2022-07-19T11:38:38;98054.13;;;23.95;54.30
55418;BME280;41287;47.554;7.844;2022-07-19T11:41:23;98057.28;;;23.94;54.33
55418;BME280;41287;47.554;7.844;2022-07-19T11:43:53;98057.66;;;23.96;54.28
55418;BME280;41287;47.554;7.844;2022-07-19T11:46:24;98050.25;;;23.96;54.37
55418;BME280;41287;47.554;7.844;2022-07-19T11:48:55;98057.66;;;23.96;54.27
55418;BME280;41287;47.554;7.844;2022-07-19T11:51:21;98045.56;;;23.97;54.05
55418;BME280;41287;47.554;7.844;2022-07-19T11:53:49;98043.97;;;23.96;54.13
55418;BME280;41287;47.554;7.844;2022-07-19T11:56:29;98048.66;;;23.95;54.06
55418;BME280;41287;47.554;7.844;2022-07-19T11:58:57;98045.56;;;23.97;54.06
55418;BME280;41287;47.554;7.844;2022-07-19T12:01:37;98046.72;;;23.96;54.41
55418;BME280;41287;47.554;7.844;2022-07-19T12:04:08;98045.94;;;23.95;54.14
55418;BME280;41287;47.554;7.844;2022-07-19T12:06:56;98038.50;;;23.96;54.31
55418;BME280;41287;47.554;7.844;2022-07-19T12:09:25;98039.31;;;23.96;54.23
55418;BME280;41287;47.554;7.844;2022-07-19T12:11:54;98029.94;;;23.97;54.17
55418;BME280;41287;47.554;7.844;2022-07-19T12:14:28;98031.09;;;23.96;54.21
55418;BME280;41287;47.554;7.844;2022-07-19T12:17:20;98023.28;;;23.95;54.38
55418;BME280;41287;47.554;7.844;2022-07-19T12:19:48;98020.13;;;23.96;54.13
55418;BME280;41287;47.554;7.844;2022-07-19T12:22:34;98013.47;;;23.94;54.33
55418;BME280;41287;47.554;7.844;2022-07-19T12:25:00;98016.25;;;23.97;54.04
55418;BME280;41287;47.554;7.844;2022-07-19T12:27:28;98008.41;;;23.96;54.30
55418;BME280;41287;47.554;7.844;2022-07-19T12:29:57;98012.72;;;23.97;54.02
55418;BME280;41287;47.554;7.844;2022-07-19T12:35:00;98000.19;;;23.96;54.06
55418;BME280;41287;47.554;7.844;2022-07-19T12:37:41;97998.25;;;23.96;54.23
55418;BME280;41287;47.554;7.844;2022-07-19T12:40:17;98006.44;;;23.96;54.26
55418;BME280;41287;47.554;7.844;2022-07-19T12:42:55;98001.38;;;23.95;54.10
55418;BME280;41287;47.554;7.844;2022-07-19T12:45:36;97997.44;;;23.96;54.05
55418;BME280;41287;47.554;7.844;2022-07-19T12:48:03;98000.97;;;23.96;54.36
55418;BME280;41287;47.554;7.844;2022-07-19T12:50:34;97993.94;;;23.95;54.18
55418;BME280;41287;47.554;7.844;2022-07-19T12:53:06;97995.50;;;23.96;54.23
55418;BME280;41287;47.554;7.844;2022-07-19T12:55:34;97992.78;;;23.96;54.39
55418;BME280;41287;47.554;7.844;2022-07-19T12:58:03;97985.34;;;23.97;54.07
55418;BME280;41287;47.554;7.844;2022-07-19T13:00:30;97995.50;;;23.96;53.93
55418;BME280;41287;47.554;7.844;2022-07-19T13:02:56;97987.28;;;23.96;53.93
55418;BME280;41287;47.554;7.844;2022-07-19T13:05:24;97983.41;;;23.97;54.27
55418;BME280;41287;47.554;7.844;2022-07-19T13:07:52;97988.88;;;23.97;54.15
55418;BME280;41287;47.554;7.844;2022-07-19T13:10:18;97989.25;;;23.96;54.37
55418;BME280;41287;47.554;7.844;2022-07-19T13:12:45;97983.41;;;23.97;54.34
55418;BME280;41287;47.554;7.844;2022-07-19T13:15:15;97982.63;;;23.97;54.12
55418;BME280;41287;47.554;7.844;2022-07-19T13:17:41;97972.44;;;23.97;54.02
55418;BME280;41287;47.554;7.844;2022-07-19T13:20:08;97971.66;;;23.97;53.92
55418;BME280;41287;47.554;7.844;2022-07-19T13:22:37;97972.44;;;23.97;54.25
55418;BME280;41287;47.554;7.844;2022-07-19T13:25:04;97974.41;;;23.97;53.97
55418;BME280;41287;47.554;7.844;2022-07-19T13:27:30;97971.66;;;23.97;54.26
55418;BME280;41287;47.554;7.844;2022-07-19T13:29:56;97966.19;;;23.97;54.02
55418;BME280;41287;47.554;7.844;2022-07-19T13:32:21;97968.94;;;23.97;53.73